Terminal Aerodrome Forecast
Issued by NWS

Home | Current Version | Previous Version | Text Only | Print | Product List | Glossary On
Versions: 1 2 3 4 5 6 7 8 9 10 11 12 13 14 15 16 17 18 19
000
FTUS42 KMLB 182000 AAA
TAFSFB
TAF AMD
KSFB 182041Z 1821/1918 16012KT P6SM VCTS SCT011 SCT025CB BKN050
      TEMPO 1821/1822 26018G30KT 2SM +TSRA BKN025CB
     FM190300 18010KT P6SM VCSH BKN030 OVC050
     FM191300 21011KT P6SM VCSH SCT015 OVC050=

USA.gov is the U.S. government's official web portal to all federal, state and local government web resources and services.